Time;durP1;ratioP1;P1;durP2;ratioP2;P2;SDS_P1;SDS_P2;PMS_P1;PMS_P2;Temp;Humidity;BMP_temperature;BMP_pressure;BME280_temperature;BME280_humidity;BME280_pressure;Samples;Min_cycle;Max_cycle;Signal;HPM_P1;HPM_P2
2021/06/13 00:00:11;;;;;;;12.00;5.22;;;;;;;18.46;74.46;98920.00;1674634;84;21571;-72
2021/06/13 00:02:39;;;;;;;6.08;4.87;;;;;;;18.42;74.52;98917.09;1662234;84;21104;-72
2021/06/13 00:05:07;;;;;;;12.15;5.08;;;;;;;18.39;74.72;98910.13;1640638;86;21654;-71
2021/06/13 00:07:34;;;;;;;5.75;5.05;;;;;;;18.34;74.90;98907.56;1627283;87;21287;-71
2021/06/13 00:10:00;;;;;;;7.17;5.25;;;;;;;18.30;75.10;98904.69;1644496;87;21052;-70
2021/06/13 00:12:27;;;;;;;6.47;4.80;;;;;;;18.25;75.28;98896.68;1694220;84;21129;-70
2021/06/13 00:14:55;;;;;;;5.25;4.78;;;;;;;18.23;75.55;98895.63;1686491;84;20979;-70
2021/06/13 00:17:21;;;;;;;12.10;5.65;;;;;;;18.22;75.71;98898.10;1700190;84;21558;-70
2021/06/13 00:19:47;;;;;;;6.58;5.97;;;;;;;18.22;75.81;98886.44;1677647;84;21092;-71
2021/06/13 00:22:14;;;;;;;17.20;5.85;;;;;;;18.24;75.88;98889.63;1671797;85;21050;-70
2021/06/13 00:24:40;;;;;;;5.65;5.15;;;;;;;18.23;75.92;98880.66;1662742;85;21511;-72
2021/06/13 00:27:08;;;;;;;8.30;6.35;;;;;;;18.18;76.03;98880.81;1639770;86;20976;-70
2021/06/13 00:29:34;;;;;;;7.60;5.70;;;;;;;18.15;76.17;98881.46;1673690;83;20962;-73
2021/06/13 00:32:00;;;;;;;6.85;6.03;;;;;;;18.11;76.50;98882.42;1676487;84;21055;-73
2021/06/13 00:34:28;;;;;;;7.97;7.22;;;;;;;18.07;76.61;98876.02;1698716;84;20963;-70
2021/06/13 00:36:55;;;;;;;10.08;7.37;;;;;;;18.07;76.79;98876.02;1676807;84;21059;-71
2021/06/13 00:39:21;;;;;;;6.90;6.25;;;;;;;18.09;76.81;98871.04;1676150;84;21029;-73
2021/06/13 00:41:48;;;;;;;8.48;6.28;;;;;;;18.09;76.82;98876.48;1698569;84;21594;-71
2021/06/13 00:44:14;;;;;;;10.40;6.55;;;;;;;18.08;76.89;98873.55;1664402;84;21097;-70
2021/06/13 00:46:41;;;;;;;7.67;5.67;;;;;;;18.03;76.96;98866.89;1700170;83;20958;-69
2021/06/13 00:49:09;;;;;;;9.03;6.97;;;;;;;17.96;77.16;98865.19;1677561;84;21222;-70
2021/06/13 00:51:35;;;;;;;10.03;7.40;;;;;;;17.92;77.34;98863.67;1673511;85;21047;-69
2021/06/13 00:54:03;;;;;;;6.72;6.12;;;;;;;17.90;77.49;98860.45;1671612;85;21031;-68
2021/06/13 00:56:30;;;;;;;7.28;5.95;;;;;;;17.89;77.65;98853.41;1639401;86;21079;-69
2021/06/13 00:58:57;;;;;;;8.83;7.92;;;;;;;17.89;77.91;98854.00;1699938;84;21117;-70
2021/06/13 01:01:23;;;;;;;9.48;7.65;;;;;;;17.88;77.94;98859.19;1655335;84;21106;-69
2021/06/13 01:03:51;;;;;;;8.15;6.50;;;;;;;17.86;78.07;98854.05;1688232;84;21110;-69
2021/06/13 01:06:23;;;;;;;7.83;7.05;;;;;;;17.84;78.24;98846.20;1686266;84;21054;-71
2021/06/13 01:09:02;;;;;;;8.63;6.72;;;;;;;17.83;78.42;98839.73;1678011;84;21731;-69
2021/06/13 01:12:03;;;;;;;8.40;7.58;;;;;;;17.79;78.56;98836.83;1668833;85;20967;-70
2021/06/13 01:14:50;;;;;;;10.75;6.00;;;;;;;17.77;78.75;98833.65;1648573;85;21051;-71
2021/06/13 01:17:25;;;;;;;7.08;6.25;;;;;;;17.78;78.91;98831.73;1688103;84;21756;-70
2021/06/13 01:20:19;;;;;;;11.83;7.70;;;;;;;17.81;78.95;98831.08;1670231;85;21051;-70
2021/06/13 01:23:42;;;;;;;8.33;6.85;;;;;;;17.82;78.87;98815.81;1670339;84;21509;-70
2021/06/13 01:26:49;;;;;;;7.30;6.25;;;;;;;17.85;78.75;98817.89;1644275;86;21550;-68
2021/06/13 01:29:29;;;;;;;8.55;6.83;;;;;;;17.84;78.61;98805.98;1662236;86;21515;-69
2021/06/13 01:32:02;;;;;;;7.62;6.90;;;;;;;17.81;78.62;98806.05;1666596;85;21544;-71
2021/06/13 01:34:31;;;;;;;9.65;6.55;;;;;;;17.77;78.76;98800.20;1622415;87;20997;-69
2021/06/13 01:37:02;;;;;;;7.92;6.78;;;;;;;17.74;79.06;98798.94;1623395;87;21766;-69
2021/06/13 01:39:30;;;;;;;7.45;6.70;;;;;;;17.73;79.10;98795.17;1690408;84;21019;-69
2021/06/13 01:41:59;;;;;;;8.75;6.92;;;;;;;17.76;79.18;98789.88;1644606;86;21008;-68
2021/06/13 01:44:27;;;;;;;7.70;6.90;;;;;;;17.79;79.12;98797.39;1648276;87;21066;-69
2021/06/13 01:46:55;;;;;;;11.03;7.60;;;;;;;17.77;79.12;98794.20;1632187;86;21013;-70
2021/06/13 01:49:21;;;;;;;7.53;6.80;;;;;;;17.74;79.22;98792.14;1623256;87;21198;-72
2021/06/13 01:51:48;;;;;;;8.28;7.47;;;;;;;17.71;79.33;98791.39;1689868;84;21017;-69
2021/06/13 01:54:17;;;;;;;8.28;7.22;;;;;;;17.66;79.41;98797.55;1689440;83;21519;-72
2021/06/13 01:56:48;;;;;;;7.30;6.08;;;;;;;17.63;79.54;98788.12;1678139;84;21010;-70
2021/06/13 01:59:17;;;;;;;8.88;8.08;;;;;;;17.64;79.63;98785.64;1666761;85;21032;-71
2021/06/13 02:01:46;;;;;;;14.00;8.28;;;;;;;17.67;79.74;98788.27;1647943;85;21618;-73
2021/06/13 02:04:14;;;;;;;8.08;7.17;;;;;;;17.71;79.63;98784.59;1648987;86;20973;-70
2021/06/13 02:06:47;;;;;;;7.37;6.58;;;;;;;17.72;79.57;98784.04;1630496;87;21121;-70
2021/06/13 02:09:15;;;;;;;9.50;6.80;;;;;;;17.72;79.51;98778.60;1620866;87;21049;-70
2021/06/13 02:11:43;;;;;;;6.62;5.30;;;;;;;17.69;79.59;98783.33;1692305;84;21106;-70
2021/06/13 02:14:10;;;;;;;9.85;6.72;;;;;;;17.64;79.76;98780.20;1659042;84;21031;-70
2021/06/13 02:16:42;;;;;;;8.05;6.95;;;;;;;17.58;80.20;98780.08;1641014;86;21016;-69
2021/06/13 02:19:11;;;;;;;10.18;7.53;;;;;;;17.55;80.40;98775.84;1598105;87;21098;-69
2021/06/13 02:21:42;;;;;;;8.88;8.03;;;;;;;17.56;80.54;98776.06;1649509;86;21057;-68
2021/06/13 02:24:10;;;;;;;10.60;7.45;;;;;;;17.56;80.62;98775.50;1665138;86;21015;-68
2021/06/13 02:26:39;;;;;;;8.23;7.37;;;;;;;17.56;80.64;98773.34;1614790;87;21106;-69
2021/06/13 02:29:07;;;;;;;8.15;7.17;;;;;;;17.55;80.70;98770.41;1649409;86;21097;-68
2021/06/13 02:31:33;;;;;;;6.53;5.62;;;;;;;17.54;80.82;98771.52;1643968;86;21573;-69
2021/06/13 02:34:01;;;;;;;7.00;6.30;;;;;;;17.55;81.06;98767.69;1645711;86;21076;-70
2021/06/13 02:36:28;;;;;;;9.03;6.00;;;;;;;17.53;81.22;98765.83;1629154;87;21555;-69
2021/06/13 02:38:57;;;;;;;8.20;6.75;;;;;;;17.52;81.34;98760.14;1640177;86;21050;-69
2021/06/13 02:41:25;;;;;;;8.48;7.35;;;;;;;17.51;81.32;98756.63;1639526;87;21045;-69
2021/06/13 02:43:52;;;;;;;6.47;5.87;;;;;;;17.51;81.41;98759.34;1644071;87;21063;-69
2021/06/13 02:46:20;;;;;;;10.13;7.70;;;;;;;17.50;81.51;98761.84;1636358;86;21076;-69
2021/06/13 02:48:47;;;;;;;9.03;8.10;;;;;;;17.49;81.60;98759.44;1645318;86;21598;-69
2021/06/13 02:51:14;;;;;;;12.68;10.88;;;;;;;17.44;81.79;98750.87;1666333;86;21051;-69
2021/06/13 02:53:46;;;;;;;13.10;11.20;;;;;;;17.44;81.98;98759.83;1623562;87;21042;-68
2021/06/13 02:56:39;;;;;;;10.15;9.18;;;;;;;17.44;82.05;98754.39;1636125;86;21035;-68
2021/06/13 02:59:21;;;;;;;12.03;9.15;;;;;;;17.46;82.23;98757.36;1630291;87;21506;-70
2021/06/13 03:01:48;;;;;;;9.28;8.13;;;;;;;17.39;82.26;98759.98;1644815;86;21127;-68
2021/06/13 03:04:19;;;;;;;9.20;8.30;;;;;;;17.32;82.76;98765.06;1666466;85;21297;-69
2021/06/13 03:06:48;;;;;;;9.28;8.38;;;;;;;17.24;83.17;98765.86;1635327;86;20959;-69
2021/06/13 03:09:16;;;;;;;9.90;8.43;;;;;;;17.26;83.32;98753.32;1649523;86;21048;-69
2021/06/13 03:11:43;;;;;;;10.82;9.73;;;;;;;17.29;83.22;98757.56;1664618;85;21587;-70
2021/06/13 03:14:10;;;;;;;10.85;8.10;;;;;;;17.33;83.07;98754.45;1634485;87;21047;-69
2021/06/13 03:16:37;;;;;;;9.80;8.48;;;;;;;17.38;82.94;98758.37;1641061;87;21224;-71
2021/06/13 03:19:03;;;;;;;9.03;7.92;;;;;;;17.40;82.83;98747.19;1664880;86;21004;-71
2021/06/13 03:21:30;;;;;;;8.20;7.47;;;;;;;17.42;82.87;98753.90;1649073;87;20945;-70
2021/06/13 03:24:00;;;;;;;11.80;8.48;;;;;;;17.42;82.83;98746.30;1644897;86;21385;-70
2021/06/13 03:26:28;;;;;;;11.08;8.33;;;;;;;17.42;82.86;98740.30;1635150;86;21396;-69
2021/06/13 03:28:58;;;;;;;12.70;10.65;;;;;;;17.42;82.80;98736.23;1639207;87;21830;-71
2021/06/13 03:31:26;;;;;;;9.43;8.53;;;;;;;17.44;82.71;98732.64;1611602;89;21080;-70
2021/06/13 03:33:53;;;;;;;12.43;11.22;;;;;;;17.48;82.62;98732.80;1605508;88;20986;-70
2021/06/13 03:36:20;;;;;;;12.47;10.88;;;;;;;17.53;82.48;98734.01;1643361;87;21026;-70
2021/06/13 03:38:47;;;;;;;11.35;10.25;;;;;;;17.60;82.20;98737.66;1648047;85;22179;-69
2021/06/13 03:41:16;;;;;;;11.50;10.30;;;;;;;17.67;82.00;98742.84;1627550;87;22239;-70
2021/06/13 03:43:44;;;;;;;11.65;9.50;;;;;;;17.68;81.85;98737.66;1627462;87;21584;-69
2021/06/13 03:46:10;;;;;;;12.65;11.35;;;;;;;17.63;81.95;98736.45;1636410;86;21021;-70
2021/06/13 03:48:38;;;;;;;11.97;10.82;;;;;;;17.68;82.03;98743.09;1649070;85;21112;-71
2021/06/13 03:51:05;;;;;;;16.70;10.82;;;;;;;17.77;81.76;98747.97;1642743;86;20974;-70
2021/06/13 03:53:31;;;;;;;13.15;11.85;;;;;;;17.88;81.46;98749.02;1653523;86;21788;-69
2021/06/13 03:56:01;;;;;;;16.50;10.50;;;;;;;17.96;81.05;98749.56;1626575;87;21675;-69
2021/06/13 03:58:28;;;;;;;15.60;12.80;;;;;;;18.04;80.45;98749.55;1648401;86;21047;-70
2021/06/13 04:00:54;;;;;;;14.98;11.38;;;;;;;18.05;80.08;98752.52;1648299;87;21034;-69
2021/06/13 04:03:21;;;;;;;13.28;11.60;;;;;;;18.08;79.92;98753.22;1622851;87;21067;-69
2021/06/13 04:05:49;;;;;;;13.10;11.78;;;;;;;18.12;79.65;98755.56;1623985;87;22065;-74
2021/06/13 04:08:15;;;;;;;13.62;10.48;;;;;;;18.20;79.37;98756.66;1659578;86;20981;-71
2021/06/13 04:11:03;;;;;;;14.43;11.30;;;;;;;18.26;78.96;98749.94;1659971;85;20954;-70
2021/06/13 04:13:30;;;;;;;15.08;10.68;;;;;;;18.32;78.63;98749.20;1730941;82;20947;-69
2021/06/13 04:15:57;;;;;;;10.75;9.05;;;;;;;18.36;78.49;98735.19;1734640;82;21580;-68
2021/06/13 04:18:23;;;;;;;9.25;8.35;;;;;;;18.42;78.44;98742.03;1735067;82;21074;-68
2021/06/13 04:20:50;;;;;;;8.55;7.85;;;;;;;18.46;78.06;98745.17;1787068;80;20909;-69
2021/06/13 04:23:16;;;;;;;7.53;6.87;;;;;;;18.50;77.69;98744.76;1714465;82;21048;-68
2021/06/13 04:25:44;;;;;;;10.18;8.25;;;;;;;18.56;77.56;98747.55;1765458;80;20980;-69
2021/06/13 04:28:14;;;;;;;9.58;8.35;;;;;;;18.61;77.09;98751.46;1735632;82;21482;-70
2021/06/13 04:30:41;;;;;;;11.90;8.75;;;;;;;18.63;77.08;98742.98;1755510;79;20958;-69
2021/06/13 04:33:09;;;;;;;8.75;7.90;;;;;;;18.67;77.12;98744.72;1771876;80;20969;-69
2021/06/13 04:35:35;;;;;;;9.30;7.03;;;;;;;18.68;77.02;98745.52;1755088;79;20981;-69
2021/06/13 04:38:01;;;;;;;10.82;8.38;;;;;;;18.68;77.06;98746.89;1796265;79;21459;-71
2021/06/13 04:40:28;;;;;;;9.45;7.35;;;;;;;18.73;77.00;98736.61;1755581;79;20967;-70
2021/06/13 04:42:54;;;;;;;15.45;8.50;;;;;;;18.80;77.01;98738.04;1755434;79;21316;-71
2021/06/13 04:45:21;;;;;;;7.83;7.03;;;;;;;18.84;76.99;98732.17;1755012;80;21524;-70
2021/06/13 04:47:47;;;;;;;6.45;5.85;;;;;;;18.88;76.77;98727.09;1753590;80;20993;-69
2021/06/13 04:50:14;;;;;;;10.05;6.62;;;;;;;18.94;76.43;98720.91;1744768;81;21018;-70
2021/06/13 04:52:40;;;;;;;6.80;6.05;;;;;;;18.99;76.17;98721.49;1730554;80;21499;-70
2021/06/13 04:55:21;;;;;;;8.75;6.62;;;;;;;19.04;75.93;98711.00;1691249;83;21272;-71
2021/06/13 04:58:05;;;;;;;8.30;6.65;;;;;;;19.12;75.64;98714.23;1708221;83;20987;-69
2021/06/13 05:00:31;;;;;;;;;;;;;;;19.21;75.30;98716.89;1701975;84;21036;-68
2021/06/13 05:02:57;;;;;;;6.72;5.87;;;;;;;19.33;74.28;98711.55;1734498;82;20514;-70
2021/06/13 05:05:24;;;;;;;6.67;6.08;;;;;;;19.41;72.85;98716.12;1724695;83;21053;-69
2021/06/13 05:07:50;;;;;;;7.33;6.55;;;;;;;19.50;72.50;98719.63;1700062;84;21415;-69
2021/06/13 05:10:17;;;;;;;7.20;6.28;;;;;;;19.57;72.36;98710.33;1694868;84;20944;-70
2021/06/13 05:12:49;;;;;;;8.23;6.15;;;;;;;19.65;72.29;98714.94;1708371;82;21607;-70
2021/06/13 05:15:18;;;;;;;6.30;5.67;;;;;;;19.72;72.18;98716.55;1723997;82;20997;-71
2021/06/13 05:17:45;;;;;;;6.35;5.75;;;;;;;19.78;71.50;98713.86;1705854;84;21095;-69
2021/06/13 05:20:13;;;;;;;6.08;5.58;;;;;;;19.84;71.42;98717.98;1732042;82;21799;-69
2021/06/13 05:22:57;;;;;;;5.53;5.00;;;;;;;19.91;70.88;98715.50;1722860;81;21031;-69
2021/06/13 05:25:26;;;;;;;7.75;5.95;;;;;;;19.94;71.05;98716.22;1685908;84;21058;-68
2021/06/13 05:27:58;;;;;;;5.83;5.22;;;;;;;19.99;70.45;98717.38;1707552;84;20964;-68
2021/06/13 05:30:26;;;;;;;6.62;5.58;;;;;;;20.07;69.99;98718.98;1724830;81;21013;-72
2021/06/13 05:32:52;;;;;;;7.55;6.30;;;;;;;20.10;69.29;98715.00;1694502;84;22535;-69
2021/06/13 05:35:19;;;;;;;6.17;5.53;;;;;;;20.16;69.13;98715.03;1706494;84;21553;-69
2021/06/13 05:37:46;;;;;;;12.93;5.65;;;;;;;20.23;69.15;98720.75;1696157;84;21004;-69
2021/06/13 05:40:14;;;;;;;5.90;5.40;;;;;;;20.32;68.81;98720.69;1699305;84;21510;-70
2021/06/13 05:42:40;;;;;;;6.22;5.62;;;;;;;20.40;67.78;98723.89;1677779;85;21016;-69
2021/06/13 05:45:09;;;;;;;19.05;6.03;;;;;;;20.50;67.02;98723.45;1702768;83;21263;-71
2021/06/13 05:47:35;;;;;;;6.62;5.92;;;;;;;20.60;66.54;98724.95;1731932;82;21031;-68
2021/06/13 05:50:04;;;;;;;16.82;6.55;;;;;;;20.75;66.04;98731.13;1724819;83;21089;-70
2021/06/13 05:52:31;;;;;;;6.20;4.55;;;;;;;20.75;66.04;98731.13;1683348;84;21056;-71
2021/06/13 05:54:58;;;;;;;7.50;6.12;;;;;;;20.81;65.21;98736.01;1703394;83;21026;-71
2021/06/13 05:57:30;;;;;;;7.12;6.35;;;;;;;20.86;65.01;98730.92;1705915;84;21620;-68
2021/06/13 05:59:54;;;;;;;5.95;5.37;;;;;;;20.89;65.19;98729.66;1720655;81;20984;-69
2021/06/13 06:02:20;;;;;;;7.17;5.37;;;;;;;20.93;65.31;98736.59;1681500;84;20948;-71
2021/06/13 06:04:46;;;;;;;7.03;6.33;;;;;;;20.99;64.81;98722.94;1681926;84;21011;-72
2021/06/13 06:07:13;;;;;;;8.40;7.05;;;;;;;20.99;64.81;98722.94;1698763;83;21506;-72
2021/06/13 06:09:39;;;;;;;7.30;6.60;;;;;;;21.06;63.75;98736.02;1673936;84;21059;-70
2021/06/13 06:12:07;;;;;;;6.20;5.55;;;;;;;21.06;63.75;98736.02;1694315;84;20944;-71
2021/06/13 06:14:34;;;;;;;7.10;5.72;;;;;;;21.10;64.12;98721.32;1703064;83;21020;-73
2021/06/13 06:17:00;;;;;;;6.35;5.75;;;;;;;21.13;63.87;98719.31;1694425;84;21001;-73
2021/06/13 06:19:27;;;;;;;6.42;5.83;;;;;;;21.17;63.68;98718.86;1696301;84;21045;-71
2021/06/13 06:21:54;;;;;;;7.78;4.72;;;;;;;21.21;63.37;98721.13;1704390;84;21149;-71
2021/06/13 06:24:20;;;;;;;7.08;5.78;;;;;;;21.27;62.59;98727.16;1704201;84;21071;-73
2021/06/13 06:26:47;;;;;;;6.08;4.83;;;;;;;21.30;62.48;98724.53;1692104;83;22191;-73
2021/06/13 06:29:13;;;;;;;6.22;5.30;;;;;;;21.38;61.80;98726.13;1684043;84;21151;-73
2021/06/13 06:31:40;;;;;;;5.83;5.25;;;;;;;21.42;61.15;98730.56;1714253;83;21023;-74
2021/06/13 06:34:06;;;;;;;6.22;5.67;;;;;;;21.47;61.05;98735.80;1713202;83;21037;-70
2021/06/13 06:36:33;;;;;;;7.37;4.55;;;;;;;21.51;59.87;98734.54;1681579;84;21629;-71
2021/06/13 06:38:59;;;;;;;6.17;5.10;;;;;;;21.56;60.09;98727.45;1705510;84;21064;-70
2021/06/13 06:41:25;;;;;;;12.50;4.42;;;;;;;21.61;60.54;98726.66;1725530;82;21022;-72
2021/06/13 06:43:52;;;;;;;4.83;4.33;;;;;;;21.67;58.87;98723.91;1704319;83;20990;-72
2021/06/13 06:46:19;;;;;;;5.17;4.65;;;;;;;21.73;58.24;98711.55;1721279;83;21059;-73
2021/06/13 06:48:45;;;;;;;4.50;4.05;;;;;;;21.80;57.44;98719.75;1703418;82;21031;-71
2021/06/13 06:51:13;;;;;;;7.05;4.55;;;;;;;21.84;56.86;98722.02;1704168;82;21000;-72
2021/06/13 06:53:40;;;;;;;5.35;4.03;;;;;;;21.89;57.67;98711.62;1712768;83;21022;-73
2021/06/13 06:56:07;;;;;;;14.25;5.15;;;;;;;21.95;57.42;98712.20;1724667;82;21025;-74
2021/06/13 06:58:35;;;;;;;5.60;4.87;;;;;;;22.00;57.82;98720.97;1725199;81;21287;-73
2021/06/13 07:01:01;;;;;;;5.28;4.78;;;;;;;22.07;58.09;98719.78;1724775;81;20930;-73
2021/06/13 07:03:28;;;;;;;6.00;4.90;;;;;;;22.14;58.43;98713.71;1762421;81;21509;-77
2021/06/13 07:05:55;;;;;;;4.50;3.55;;;;;;;22.19;58.19;98723.05;1724204;82;20928;-75
2021/06/13 07:08:21;;;;;;;4.62;4.22;;;;;;;22.23;57.30;98729.41;1713130;83;21548;-71
2021/06/13 07:10:49;;;;;;;6.53;3.70;;;;;;;22.27;57.04;98726.19;1724217;82;20985;-72
2021/06/13 07:13:16;;;;;;;4.75;4.35;;;;;;;22.32;57.29;98725.94;1758115;80;21202;-73
2021/06/13 07:15:42;;;;;;;9.25;4.22;;;;;;;22.38;57.62;98734.70;1694290;83;21037;-71
2021/06/13 07:18:10;;;;;;;5.90;5.03;;;;;;;22.43;57.09;98727.59;1684035;84;21026;-73
2021/06/13 07:20:38;;;;;;;5.42;4.90;;;;;;;22.46;56.58;98733.16;1716691;81;21538;-73
2021/06/13 07:23:05;;;;;;;4.50;4.10;;;;;;;22.47;56.55;98725.75;1740547;81;21142;-73
2021/06/13 07:25:31;;;;;;;8.80;4.58;;;;;;;22.48;56.33;98735.56;1723130;82;20998;-73
2021/06/13 07:27:58;;;;;;;4.47;4.08;;;;;;;22.48;56.93;98714.44;1723203;82;20910;-73
2021/06/13 07:30:25;;;;;;;5.65;4.12;;;;;;;22.52;56.13;98731.77;1723230;82;20938;-73
2021/06/13 07:32:52;;;;;;;4.17;3.80;;;;;;;22.57;55.12;98744.41;1724412;82;20926;-74
2021/06/13 07:35:18;;;;;;;7.12;3.65;;;;;;;22.63;54.80;98723.03;1695808;82;21105;-73
2021/06/13 07:37:46;;;;;;;4.53;4.12;;;;;;;22.69;54.84;98731.19;1683944;84;21045;-72
2021/06/13 07:40:14;;;;;;;10.45;6.28;;;;;;;22.74;54.70;98723.53;1694391;83;21056;-73
2021/06/13 07:42:41;;;;;;;6.87;5.00;;;;;;;22.79;54.83;98721.89;1694439;83;21550;-71
2021/06/13 07:45:10;;;;;;;3.77;3.45;;;;;;;22.87;54.66;98716.03;1695145;83;21041;-73
2021/06/13 07:47:37;;;;;;;5.25;3.98;;;;;;;22.92;54.89;98733.02;1661322;84;21093;-74
2021/06/13 07:50:05;;;;;;;7.50;3.47;;;;;;;22.97;54.26;98712.15;1710930;81;21532;-71
2021/06/13 07:52:32;;;;;;;6.40;3.45;;;;;;;22.97;54.34;98720.98;1711315;83;20973;-72
2021/06/13 07:54:59;;;;;;;8.18;5.17;;;;;;;23.03;54.32;98714.05;1700699;81;21390;-72
2021/06/13 07:57:25;;;;;;;3.87;3.40;;;;;;;23.12;54.08;98716.02;1694411;83;21029;-73
2021/06/13 07:59:51;;;;;;;5.47;3.60;;;;;;;23.23;51.82;98732.17;1694252;83;21796;-72
2021/06/13 08:02:18;;;;;;;5.00;4.42;;;;;;;23.27;51.35;98726.18;1709314;81;21036;-73
2021/06/13 08:04:49;;;;;;;4.40;3.98;;;;;;;23.30;51.59;98725.48;1732777;81;20957;-71
2021/06/13 08:07:12;;;;;;;3.85;3.30;;;;;;;23.33;51.62;98719.84;1712826;82;21182;-71
2021/06/13 08:09:40;;;;;;;5.60;4.30;;;;;;;23.37;51.75;98709.73;1723653;82;21006;-72
2021/06/13 08:12:11;;;;;;;6.25;5.05;;;;;;;23.42;51.87;98710.83;1704493;82;21026;-70
2021/06/13 08:14:39;;;;;;;4.62;4.15;;;;;;;23.49;51.17;98714.36;1714269;83;20934;-73
2021/06/13 08:17:06;;;;;;;6.33;4.35;;;;;;;23.57;50.86;98712.77;1687142;82;20985;-68
2021/06/13 08:19:33;;;;;;;5.40;4.90;;;;;;;23.65;51.34;98710.38;1706911;83;21064;-70
2021/06/13 08:21:59;;;;;;;6.33;4.42;;;;;;;23.76;51.70;98719.65;1757723;81;21061;-70
2021/06/13 08:24:25;;;;;;;4.35;3.80;;;;;;;23.87;51.38;98714.38;1715730;81;21109;-71
2021/06/13 08:26:54;;;;;;;4.90;4.45;;;;;;;23.95;50.76;98737.28;1726241;82;20986;-71
2021/06/13 08:29:21;;;;;;;3.90;3.58;;;;;;;24.00;50.30;98727.38;1743196;82;20941;-71
2021/06/13 08:31:48;;;;;;;5.97;4.85;;;;;;;23.96;50.39;98736.94;1741868;82;21530;-70
2021/06/13 08:34:15;;;;;;;5.25;4.40;;;;;;;23.89;51.20;98729.33;1742561;81;21056;-69
2021/06/13 08:36:41;;;;;;;8.13;4.33;;;;;;;23.85;51.29;98741.41;1777392;80;21061;-70
2021/06/13 08:39:08;;;;;;;4.15;3.80;;;;;;;23.73;50.95;98731.36;1743564;82;20894;-72
2021/06/13 08:41:34;;;;;;;6.67;4.92;;;;;;;23.63;50.93;98727.02;1742131;82;21660;-72
2021/06/13 08:44:01;;;;;;;5.05;4.45;;;;;;;23.58;51.64;98732.21;1742487;81;20969;-71
2021/06/13 08:46:28;;;;;;;4.10;3.70;;;;;;;23.58;52.47;98728.67;1720566;82;21526;-72
2021/06/13 08:48:55;;;;;;;5.75;3.87;;;;;;;23.58;52.86;98731.41;1695780;83;21060;-70
2021/06/13 08:51:22;;;;;;;5.03;4.10;;;;;;;23.58;53.34;98726.72;1722375;82;20977;-72
2021/06/13 08:53:50;;;;;;;4.37;4.05;;;;;;;23.60;53.58;98722.22;1770615;80;21515;-73
2021/06/13 08:56:19;;;;;;;5.12;4.62;;;;;;;23.61;53.77;98719.70;1749698;81;21022;-70
2021/06/13 08:58:45;;;;;;;4.22;3.87;;;;;;;23.62;53.68;98735.02;1742078;82;21065;-70
2021/06/13 09:01:13;;;;;;;5.50;4.62;;;;;;;23.60;53.03;98728.52;1742079;82;20999;-70
2021/06/13 09:03:40;;;;;;;8.53;5.70;;;;;;;23.59;53.34;98733.81;1741744;82;21008;-72
2021/06/13 09:06:07;;;;;;;4.50;4.10;;;;;;;23.51;52.96;98756.74;1750951;81;21032;-72
2021/06/13 09:08:41;;;;;;;8.98;5.15;;;;;;;23.36;54.76;98763.83;1743421;82;21801;-72
2021/06/13 09:11:09;;;;;;;;;;;;;;;23.07;59.02;98738.84;1775165;80;21029;-71
2021/06/13 09:13:37;;;;;;;5.50;4.90;;;;;;;22.75;60.72;98736.66;1750700;81;21061;-72
2021/06/13 09:16:06;;;;;;;9.23;5.65;;;;;;;22.49;61.97;98727.57;1707026;83;21519;-75
2021/06/13 09:18:45;;;;;;;13.85;6.67;;;;;;;22.35;63.04;98721.72;1716361;82;21653;-72
2021/06/13 09:21:27;;;;;;;17.30;8.15;;;;;;;22.25;63.86;98711.27;1732739;82;20974;-72
2021/06/13 09:23:53;;;;;;;14.03;5.22;;;;;;;22.15;65.34;98713.37;1716175;82;21009;-72
2021/06/13 09:26:26;;;;;;;8.08;5.95;;;;;;;22.11;64.97;98713.83;1715006;82;21132;-72
2021/06/13 09:28:53;;;;;;;6.15;5.55;;;;;;;22.11;65.39;98715.19;1707851;83;21518;-71
2021/06/13 09:31:29;;;;;;;9.15;5.92;;;;;;;22.12;65.57;98711.31;1758591;81;21037;-71
2021/06/13 09:33:58;;;;;;;7.08;6.37;;;;;;;22.15;67.09;98738.59;1753617;81;21498;-70
2021/06/13 09:36:31;;;;;;;13.72;6.33;;;;;;;22.11;68.60;98741.78;1753188;81;21041;-71
2021/06/13 09:39:04;;;;;;;7.12;6.50;;;;;;;21.92;67.05;98756.09;1753264;81;21056;-71
2021/06/13 09:41:31;;;;;;;7.08;6.40;;;;;;;21.73;68.17;98769.03;1733596;81;21529;-72
2021/06/13 09:44:05;;;;;;;7.70;6.58;;;;;;;21.56;71.09;98794.50;1757891;81;21052;-70
2021/06/13 09:46:39;;;;;;;7.10;6.35;;;;;;;21.30;74.38;98783.34;1757352;81;21005;-70
2021/06/13 09:49:13;;;;;;;15.55;8.03;;;;;;;20.85;75.74;98762.91;1716586;82;20899;-69
2021/06/13 09:51:46;;;;;;;9.75;7.08;;;;;;;20.41;77.93;98774.09;1734154;82;21149;-73
2021/06/13 09:54:27;;;;;;;16.10;9.25;;;;;;;20.06;80.40;98776.87;1716231;82;20989;-74
2021/06/13 09:56:56;;;;;;;10.72;8.53;;;;;;;19.77;82.60;98772.28;1716006;82;20949;-69
2021/06/13 09:59:24;;;;;;;9.18;8.25;;;;;;;19.56;84.91;98752.40;1715268;82;21078;-68
2021/06/13 10:01:56;;;;;;;10.88;7.95;;;;;;;19.36;86.04;98753.94;1714370;82;21037;-69
2021/06/13 10:04:30;;;;;;;8.13;7.33;;;;;;;19.20;87.26;98758.34;1771474;80;22129;-69
2021/06/13 10:07:18;;;;;;;11.05;9.00;;;;;;;19.12;88.81;98767.38;1687665;83;21021;-69
2021/06/13 10:09:51;;;;;;;11.10;9.50;;;;;;;19.07;89.65;98768.37;1716633;83;21358;-69
2021/06/13 10:12:24;;;;;;;10.50;9.50;;;;;;;19.11;91.26;98762.48;1732587;82;21017;-70
2021/06/13 10:14:51;;;;;;;10.35;9.25;;;;;;;19.20;92.34;98761.63;1707027;83;21079;-71
2021/06/13 10:17:17;;;;;;;8.13;7.42;;;;;;;19.29;93.62;98770.56;1714524;83;21810;-70
2021/06/13 10:19:47;;;;;;;8.80;8.00;;;;;;;19.39;93.97;98777.00;1732431;82;21021;-69
2021/06/13 10:22:15;;;;;;;11.25;7.97;;;;;;;19.42;92.73;98772.27;1714406;82;21007;-69
2021/06/13 10:24:43;;;;;;;7.58;6.10;;;;;;;19.49;93.14;98769.28;1742495;82;21625;-71
2021/06/13 10:27:13;;;;;;;8.30;7.50;;;;;;;19.58;92.45;98768.65;1744854;80;21506;-70
2021/06/13 10:29:42;;;;;;;8.65;7.42;;;;;;;19.67;91.74;98775.97;1744379;80;21717;-74
2021/06/13 10:32:10;;;;;;;9.50;8.20;;;;;;;19.74;91.22;98769.43;1739217;82;21553;-71
2021/06/13 10:34:39;;;;;;;8.80;7.12;;;;;;;19.75;89.94;98771.03;1743444;80;21032;-72
2021/06/13 10:37:11;;;;;;;9.90;7.85;;;;;;;19.77;90.36;98751.82;1743599;81;20997;-72
2021/06/13 10:39:38;;;;;;;8.38;6.72;;;;;;;19.83;91.31;98761.41;1741417;81;21001;-70
2021/06/13 10:42:11;;;;;;;6.22;5.25;;;;;;;19.92;92.10;98766.23;1743802;82;21526;-73
2021/06/13 10:44:53;;;;;;;5.60;5.10;;;;;;;20.01;90.99;98774.34;1742888;82;21014;-73
2021/06/13 10:47:21;;;;;;;4.25;3.85;;;;;;;20.05;89.05;98779.95;1743598;80;20930;-74
2021/06/13 10:49:51;;;;;;;4.42;3.92;;;;;;;20.04;87.51;98790.06;1718795;80;21085;-74
2021/06/13 10:52:24;;;;;;;3.55;3.25;;;;;;;20.03;85.92;98798.02;1703141;82;21036;-73
2021/06/13 10:54:59;;;;;;;3.50;3.20;;;;;;;20.00;83.48;98798.67;1724702;82;21090;-72
2021/06/13 10:57:36;;;;;;;3.22;3.00;;;;;;;19.99;82.10;98789.70;1751046;80;21024;-73
2021/06/13 11:00:22;;;;;;;2.83;2.62;;;;;;;19.96;80.63;98807.30;1724427;82;21024;-73
2021/06/13 11:02:57;;;;;;;4.58;2.90;;;;;;;19.95;80.69;98800.27;1742562;82;21466;-75
2021/06/13 11:05:47;;;;;;;1.82;1.72;;;;;;;19.93;81.07;98818.89;1742814;81;20997;-75
2021/06/13 11:08:17;;;;;;;2.85;2.50;;;;;;;19.84;77.64;98820.32;1738450;82;21150;-72
2021/06/13 11:10:47;;;;;;;4.00;2.25;;;;;;;19.82;77.50;98818.48;1742949;82;20993;-73
2021/06/13 11:13:22;;;;;;;4.17;2.20;;;;;;;19.79;76.64;98810.96;1728507;80;21052;-75
2021/06/13 11:15:50;;;;;;;1.90;1.80;;;;;;;19.75;76.71;98805.94;1767662;80;21020;-75
2021/06/13 11:18:27;;;;;;;1.82;1.72;;;;;;;19.71;75.68;98817.84;1759959;80;21003;-74
2021/06/13 11:21:09;;;;;;;2.12;2.02;;;;;;;19.62;76.21;98812.98;1759000;81;21146;-74
2021/06/13 11:23:39;;;;;;;2.42;2.22;;;;;;;19.50;77.44;98824.06;1759019;81;20948;-78
2021/06/13 11:26:11;;;;;;;1.80;1.65;;;;;;;19.38;76.82;98829.38;1759010;81;20972;-82
2021/06/13 11:28:45;;;;;;;1.77;1.67;;;;;;;19.30;76.82;98830.23;1762905;81;21013;-80
2021/06/13 11:31:19;;;;;;;2.75;2.30;;;;;;;19.21;76.45;98825.38;1759269;81;20933;-79
2021/06/13 11:33:48;;;;;;;2.52;2.33;;;;;;;19.12;76.57;98829.52;1760260;81;21043;-79
2021/06/13 11:36:23;;;;;;;5.15;2.10;;;;;;;19.09;77.19;98817.08;1760831;81;20977;-82
2021/06/13 11:38:58;;;;;;;2.62;2.42;;;;;;;19.08;77.90;98808.12;1739064;81;21478;-87
2021/06/13 11:41:36;;;;;;;2.92;2.50;;;;;;;19.09;78.62;98800.72;1739006;81;20986;-82